Time;durP1;ratioP1;P1;durP2;ratioP2;P2;SDS_P1;SDS_P2;PMS_P1;PMS_P2;Temp;Humidity;BMP_temperature;BMP_pressure;BME280_temperature;BME280_humidity;BME280_pressure;Samples;Min_cycle;Max_cycle;Signal;HPM_P1;HPM_P2
2022/07/22 00:06:13;;;;;;;0.20;0.00;;;24.80;99.90;;;;;;25669823;23;20206;-70
2022/07/22 00:16:17;;;;;;;0.20;0.00;;;24.70;99.90;;;;;;25701179;23;20163;-71
2022/07/22 00:26:23;;;;;;;0.20;0.00;;;24.50;99.90;;;;;;25701175;23;20201;-70
2022/07/22 00:36:26;;;;;;;0.20;0.00;;;24.70;99.90;;;;;;25675111;23;20186;-70
2022/07/22 00:46:33;;;;;;;0.20;0.00;;;25.30;99.90;;;;;;25700160;23;20186;-70
2022/07/22 00:56:37;;;;;;;0.20;0.10;;;25.50;99.90;;;;;;25700227;23;20185;-70
2022/07/22 01:06:44;;;;;;;0.20;0.00;;;25.20;99.90;;;;;;25673147;23;20292;-70
2022/07/22 01:16:48;;;;;;;0.20;0.00;;;25.10;99.90;;;;;;25698765;23;20238;-70
2022/07/22 01:26:54;;;;;;;0.20;0.00;;;24.60;99.90;;;;;;25673348;23;20190;-72
2022/07/22 01:36:57;;;;;;;0.20;0.00;;;24.80;99.90;;;;;;25698650;23;20174;-72
2022/07/22 01:47:02;;;;;;;0.20;0.00;;;24.70;99.90;;;;;;25671504;23;20201;-71
2022/07/22 01:57:06;;;;;;;0.20;0.00;;;24.40;99.90;;;;;;25697972;23;20190;-71
2022/07/22 02:07:11;;;;;;;0.20;0.00;;;24.40;99.90;;;;;;25670833;23;20232;-71
2022/07/22 02:17:15;;;;;;;0.20;0.00;;;24.30;99.90;;;;;;25697068;23;20217;-72
2022/07/22 02:27:21;;;;;;;0.20;0.00;;;23.80;99.90;;;;;;25670829;23;20190;-72
2022/07/22 02:37:25;;;;;;;0.20;0.00;;;23.90;99.90;;;;;;25696680;23;20181;-71
2022/07/22 02:47:30;;;;;;;0.20;0.00;;;23.70;99.90;;;;;;25670520;23;20229;-71
2022/07/22 02:57:34;;;;;;;0.20;0.00;;;23.60;99.90;;;;;;25696424;23;20175;-70
2022/07/22 03:07:39;;;;;;;0.20;0.00;;;23.60;99.90;;;;;;25694720;23;20201;-69
2022/07/22 03:17:43;;;;;;;0.20;0.00;;;23.30;99.90;;;;;;25670569;23;20217;-69
2022/07/22 03:27:48;;;;;;;0.20;0.00;;;23.20;99.90;;;;;;25695235;23;20206;-69
2022/07/22 03:37:52;;;;;;;0.20;0.00;;;23.20;99.90;;;;;;25698887;23;20170;-71
2022/07/22 03:47:58;;;;;;;0.20;0.00;;;23.00;99.90;;;;;;25703015;23;20226;-70
2022/07/22 03:58:02;;;;;;;0.20;0.00;;;23.10;99.90;;;;;;25702670;23;20151;-69
2022/07/22 04:08:08;;;;;;;0.20;0.10;;;23.10;99.90;;;;;;25700988;23;20217;-70
2022/07/22 04:18:11;;;;;;;0.20;0.10;;;23.00;99.90;;;;;;25702438;23;20190;-70
2022/07/22 04:28:17;;;;;;;0.20;0.00;;;22.90;99.90;;;;;;25701762;23;20245;-70
2022/07/22 04:38:21;;;;;;;0.20;0.00;;;23.50;99.90;;;;;;25675151;23;20250;-70
2022/07/22 04:48:26;;;;;;;0.20;0.00;;;23.40;99.90;;;;;;25699563;23;20213;-70
2022/07/22 04:58:30;;;;;;;0.20;0.00;;;23.60;99.90;;;;;;25699737;23;20233;-69
2022/07/22 05:08:35;;;;;;;0.20;0.10;;;23.10;99.90;;;;;;25699122;23;20201;-69
2022/07/22 05:18:39;;;;;;;0.20;0.00;;;23.10;99.90;;;;;;25698728;23;20159;-69
2022/07/22 05:28:44;;;;;;;0.20;0.00;;;23.50;99.90;;;;;;25697352;23;20181;-70
2022/07/22 05:38:48;;;;;;;0.20;0.00;;;23.70;99.90;;;;;;25670239;23;20170;-70
2022/07/22 05:48:55;;;;;;;0.20;0.00;;;23.90;99.90;;;;;;25670358;23;20236;-70
2022/07/22 05:58:59;;;;;;;0.20;0.00;;;24.50;99.90;;;;;;25695712;23;20190;-69
2022/07/22 06:09:05;;;;;;;0.20;0.10;;;25.00;99.90;;;;;;25694643;23;20198;-69
2022/07/22 06:19:10;;;;;;;0.20;0.00;;;25.50;99.90;;;;;;25667970;23;20166;-70
2022/07/22 06:29:16;;;;;;;0.20;0.05;;;26.10;99.90;;;;;;25692683;23;20198;-70
2022/07/22 06:39:20;;;;;;;0.20;0.00;;;26.60;99.90;;;;;;25693087;23;20173;-70
2022/07/22 06:49:25;;;;;;;0.20;0.00;;;27.40;99.90;;;;;;25667178;23;20194;-70
2022/07/22 06:59:29;;;;;;;0.20;0.00;;;28.00;99.90;;;;;;25690889;23;20210;-70
2022/07/22 07:09:34;;;;;;;0.20;0.10;;;28.50;99.90;;;;;;25688879;23;20511;-69
2022/07/22 07:19:38;;;;;;;0.20;0.00;;;28.80;99.90;;;;;;25674499;23;20170;-70
2022/07/22 07:29:44;;;;;;;0.20;0.00;;;28.60;99.90;;;;;;25700473;23;20206;-69
2022/07/22 07:39:48;;;;;;;0.20;0.00;;;28.40;99.90;;;;;;25700018;23;20159;-69
2022/07/22 07:49:54;;;;;;;0.20;0.00;;;28.20;99.90;;;;;;25699098;23;20194;-71
2022/07/22 07:59:58;;;;;;;0.20;0.00;;;28.10;99.90;;;;;;25673085;23;20190;-69
2022/07/22 08:10:05;;;;;;;0.20;0.00;;;28.30;99.90;;;;;;25699302;23;20197;-67
2022/07/22 08:20:30;;;;;;;0.20;0.10;;;28.50;99.90;;;;;;25698228;23;20249;-70
2022/07/22 08:30:35;;;;;;;0.20;0.00;;;28.60;99.90;;;;;;25698308;23;20241;-70
2022/07/22 08:40:39;;;;;;;0.20;0.00;;;28.70;99.90;;;;;;25670896;23;20234;-69
2022/07/22 08:50:45;;;;;;;0.20;0.00;;;28.70;99.90;;;;;;25670721;23;20210;-71
2022/07/22 09:01:05;;;;;;;0.20;0.03;;;28.80;99.90;;;;;;25696844;23;20198;-69
2022/07/22 09:11:18;;;;;;;0.20;0.10;;;28.80;99.90;;;;;;25695557;23;20185;-68
2022/07/22 09:21:22;;;;;;;0.20;0.00;;;28.80;99.90;;;;;;25668807;23;20222;-69
2022/07/22 09:31:29;;;;;;;0.20;0.10;;;29.00;99.90;;;;;;25694740;23;20196;-71
2022/07/22 09:41:35;;;;;;;0.20;0.00;;;29.00;99.90;;;;;;25667062;23;20178;-70
2022/07/22 09:51:42;;;;;;;0.20;0.00;;;29.20;99.90;;;;;;25669410;23;20193;-69
2022/07/22 10:01:48;;;;;;;0.20;0.00;;;29.40;99.90;;;;;;25667096;23;20199;-68
2022/07/22 10:11:54;;;;;;;0.20;0.00;;;29.40;99.90;;;;;;25693045;23;20201;-69
2022/07/22 10:21:58;;;;;;;0.20;0.00;;;29.60;99.90;;;;;;25693913;23;20197;-69
2022/07/22 10:32:27;;;;;;;0.20;0.00;;;29.90;99.90;;;;;;25689842;23;20206;-68
2022/07/22 10:43:04;;;;;;;0.20;0.00;;;30.10;99.90;;;;;;25656302;23;20194;-70
2022/07/22 10:53:11;;;;;;;0.20;0.00;;;30.50;99.90;;;;;;25652870;23;20189;-69
2022/07/22 11:03:25;;;;;;;0.20;0.00;;;30.80;99.90;;;;;;25678437;23;20213;-70
2022/07/22 11:13:33;;;;;;;0.20;0.00;;;31.20;99.90;;;;;;25673960;23;20197;-69
2022/07/22 11:23:41;;;;;;;0.20;0.00;;;31.40;99.90;;;;;;25646278;23;20163;-68
2022/07/22 11:33:46;;;;;;;0.20;0.00;;;31.80;99.90;;;;;;25672540;23;20233;-70
2022/07/22 11:43:51;;;;;;;0.20;0.00;;;32.30;99.90;;;;;;25661857;23;20257;-70
2022/07/22 11:53:57;;;;;;;0.20;0.00;;;32.40;99.90;;;;;;25640588;23;21124;-70
2022/07/22 12:04:03;;;;;;;0.20;0.00;;;32.70;99.90;;;;;;25587187;23;1460851;-69
2022/07/22 12:14:10;;;;;;;0.20;0.00;;;32.90;99.90;;;;;;25659127;23;20186;-69
2022/07/22 12:24:28;;;;;;;0.20;0.00;;;33.50;99.90;;;;;;25659251;23;20165;-69
2022/07/22 12:34:36;;;;;;;0.20;0.00;;;33.90;99.90;;;;;;25660428;23;20300;-70
2022/07/22 12:44:40;;;;;;;0.20;0.00;;;34.60;99.90;;;;;;25686826;23;20209;-69
2022/07/22 12:54:45;;;;;;;0.20;0.00;;;34.30;99.90;;;;;;25685185;23;20206;-69
2022/07/22 13:04:49;;;;;;;0.20;0.05;;;33.90;99.90;;;;;;25682949;23;20209;-70
2022/07/22 13:14:54;;;;;;;0.20;0.00;;;35.10;99.90;;;;;;25680232;23;20262;-70
2022/07/22 13:24:58;;;;;;;0.20;0.00;;;35.00;99.90;;;;;;25681686;23;20217;-69
2022/07/22 13:35:04;;;;;;;0.20;0.00;;;35.00;99.90;;;;;;25657251;23;20265;-67
2022/07/22 13:45:11;;;;;;;0.20;0.00;;;35.50;99.90;;;;;;25683468;23;20163;-69
2022/07/22 13:55:16;;;;;;;0.20;0.00;;;35.50;99.90;;;;;;25682368;23;20324;-69
2022/07/22 14:05:20;;;;;;;0.20;0.00;;;35.10;99.90;;;;;;25682398;23;20218;-68
2022/07/22 14:15:25;;;;;;;0.20;0.00;;;37.00;99.90;;;;;;25652201;23;20190;-67
2022/07/22 14:25:30;;;;;;;0.20;0.00;;;37.40;99.90;;;;;;25650553;23;20237;-70
2022/07/22 14:35:35;;;;;;;0.20;0.00;;;36.20;99.90;;;;;;25676703;23;20556;-68
2022/07/22 14:45:38;;;;;;;0.20;0.00;;;36.40;99.90;;;;;;25674625;23;20166;-68
2022/07/22 14:55:44;;;;;;;0.20;0.00;;;37.70;99.90;;;;;;25648881;23;20189;-68
2022/07/22 15:05:48;;;;;;;0.20;0.00;;;36.70;99.90;;;;;;25675350;23;20351;-68
2022/07/22 15:15:53;;;;;;;0.20;0.00;;;36.60;99.90;;;;;;25676226;23;20289;-69
2022/07/22 15:25:57;;;;;;;0.20;0.00;;;36.60;99.90;;;;;;25676351;23;20167;-68
2022/07/22 15:36:03;;;;;;;0.20;0.00;;;36.90;99.90;;;;;;25679360;23;20256;-69
2022/07/22 15:46:09;;;;;;;0.20;0.00;;;36.60;99.90;;;;;;25683001;23;20163;-68
2022/07/22 15:56:15;;;;;;;0.20;0.00;;;36.90;99.90;;;;;;25681716;23;20229;-68
2022/07/22 16:06:19;;;;;;;0.20;0.00;;;35.80;99.90;;;;;;25656263;23;20201;-70
2022/07/22 16:16:24;;;;;;;0.20;0.00;;;34.60;99.90;;;;;;25654849;23;20238;-70
2022/07/22 16:26:28;;;;;;;0.20;0.00;;;32.20;99.90;;;;;;25654539;23;20184;-69
2022/07/22 16:36:33;;;;;;;0.20;0.00;;;31.50;99.90;;;;;;25678488;23;20186;-70
2022/07/22 16:46:37;;;;;;;0.20;0.00;;;31.50;99.90;;;;;;25680757;23;20230;-70
2022/07/22 16:56:42;;;;;;;0.20;0.00;;;30.60;99.90;;;;;;25681366;23;20181;-71
2022/07/22 17:06:47;;;;;;;0.20;0.00;;;30.70;99.90;;;;;;25678653;23;20221;-69
2022/07/22 17:16:52;;;;;;;0.20;0.00;;;30.50;99.90;;;;;;25650807;23;20197;-71
2022/07/22 17:26:56;;;;;;;0.20;0.00;;;30.50;99.90;;;;;;25676861;23;20235;-70
2022/07/22 17:37:02;;;;;;;0.20;0.00;;;32.10;99.90;;;;;;25653032;23;20184;-71
2022/07/22 17:47:06;;;;;;;0.20;0.00;;;30.90;99.90;;;;;;25678265;23;20186;-69
2022/07/22 17:57:11;;;;;;;0.20;0.00;;;30.60;99.90;;;;;;25654459;23;20196;-71
2022/07/22 18:07:15;;;;;;;0.20;0.00;;;30.60;99.90;;;;;;25678708;23;20355;-73
2022/07/22 18:17:21;;;;;;;0.20;0.00;;;30.50;99.90;;;;;;25679631;23;20229;-72
2022/07/22 18:27:25;;;;;;;0.20;0.08;;;30.70;99.90;;;;;;25653042;23;20220;-69
2022/07/22 18:37:34;;;;;;;0.20;0.00;;;30.10;99.90;;;;;;25678112;23;20158;-71
2022/07/22 18:47:39;;;;;;;0.20;0.00;;;29.40;99.90;;;;;;25675615;23;20197;-71
2022/07/22 18:57:44;;;;;;;0.20;0.00;;;29.20;99.90;;;;;;25646239;23;20185;-71
2022/07/22 19:07:50;;;;;;;0.20;0.00;;;28.70;99.90;;;;;;25680736;23;20221;-71
2022/07/22 19:17:55;;;;;;;0.20;0.00;;;28.40;99.90;;;;;;25687410;23;20169;-70
2022/07/22 19:27:59;;;;;;;0.20;0.00;;;28.30;99.90;;;;;;25686935;23;20305;-70
2022/07/22 19:38:04;;;;;;;0.20;0.00;;;28.00;99.90;;;;;;25685160;23;20193;-71
2022/07/22 19:48:08;;;;;;;0.20;0.00;;;27.80;99.90;;;;;;25686275;23;20240;-70
2022/07/22 19:58:13;;;;;;;0.20;0.00;;;27.60;99.90;;;;;;25680422;23;20178;-72
2022/07/22 20:08:18;;;;;;;0.20;0.00;;;27.70;99.90;;;;;;25680285;23;20261;-72
2022/07/22 20:18:24;;;;;;;0.20;0.00;;;27.80;99.90;;;;;;25661305;23;20195;-72
2022/07/22 20:28:27;;;;;;;0.20;0.00;;;27.90;99.90;;;;;;25685410;23;21021;-71
2022/07/22 20:38:33;;;;;;;0.20;0.00;;;27.80;99.90;;;;;;25662751;23;20253;-72
2022/07/22 20:48:37;;;;;;;0.20;0.00;;;27.20;99.90;;;;;;25687541;23;20206;-72
2022/07/22 20:58:42;;;;;;;0.20;0.00;;;27.10;99.90;;;;;;25687387;23;20189;-71
2022/07/22 21:08:46;;;;;;;0.20;0.03;;;27.00;99.90;;;;;;25687226;23;20202;-70
2022/07/22 21:18:51;;;;;;;0.20;0.00;;;26.80;99.90;;;;;;25683842;23;20177;-71
2022/07/22 21:28:55;;;;;;;0.20;0.10;;;26.80;99.90;;;;;;25679557;23;20210;-72
2022/07/22 21:39:01;;;;;;;0.20;0.00;;;26.70;99.90;;;;;;25683693;23;20251;-72
2022/07/22 21:49:06;;;;;;;0.20;0.00;;;26.20;99.90;;;;;;25683480;23;20186;-72
2022/07/22 21:59:11;;;;;;;0.20;0.00;;;26.20;99.90;;;;;;25682905;23;20194;-71
2022/07/22 22:09:16;;;;;;;0.20;0.00;;;26.10;99.90;;;;;;25683702;23;20217;-70
2022/07/22 22:19:21;;;;;;;0.20;0.00;;;26.20;99.90;;;;;;25655651;23;20193;-71
2022/07/22 22:29:25;;;;;;;0.20;0.00;;;26.10;99.90;;;;;;25683776;23;20266;-70
2022/07/22 22:39:30;;;;;;;0.20;0.10;;;25.90;99.90;;;;;;25682766;23;20186;-70
2022/07/22 22:49:34;;;;;;;0.20;0.10;;;26.00;99.90;;;;;;25681217;23;20225;-69
2022/07/22 22:59:42;;;;;;;0.20;0.00;;;25.70;99.90;;;;;;25681935;23;20250;-70
2022/07/22 23:09:46;;;;;;;0.20;0.00;;;25.80;99.90;;;;;;25681268;23;20261;-70
2022/07/22 23:19:54;;;;;;;0.20;0.00;;;25.80;99.90;;;;;;25682462;23;20173;-70
2022/07/22 23:29:59;;;;;;;0.20;0.00;;;25.70;99.90;;;;;;25682183;23;20193;-69
2022/07/22 23:40:06;;;;;;;0.20;0.00;;;25.50;99.90;;;;;;25682312;23;20363;-70
2022/07/22 23:50:10;;;;;;;0.20;0.00;;;25.40;99.90;;;;;;25682086;23;20205;-70
